Time;durP1;ratioP1;P1;durP2;ratioP2;P2;SDS_P1;SDS_P2;PMS_P1;PMS_P2;Temp;Humidity;BMP_temperature;BMP_pressure;BME280_temperature;BME280_humidity;BME280_pressure;Samples;Min_cycle;Max_cycle;Signal;HPM_P1;HPM_P2
2021/10/08 00:00:51;;;;;;;51.73;27.37;;;;;;;;;;5055399;28;20189;-76
2021/10/08 00:03:16;;;;;;;76.60;28.57;;;;;;;;;;5050040;28;20292;-73
2021/10/08 00:05:41;;;;;;;58.20;26.87;;;;;;;;;;5053451;28;20704;-73
2021/10/08 00:08:07;;;;;;;59.97;26.83;;;;;;;;;;5049963;28;20180;-73
2021/10/08 00:10:32;;;;;;;112.87;29.90;;;;;;;;;;5049363;28;20170;-73
2021/10/08 00:12:57;;;;;;;98.07;29.47;;;;;;;;;;5050948;28;20177;-73
2021/10/08 00:15:23;;;;;;;70.73;26.17;;;;;;;;;;5052242;28;20573;-74
2021/10/08 00:17:48;;;;;;;58.33;25.73;;;;;;;;;;5051931;28;20531;-74
2021/10/08 00:20:13;;;;;;;63.63;25.27;;;;;;;;;;5049406;28;20322;-74
2021/10/08 00:22:38;;;;;;;50.00;26.13;;;;;;;;;;5045053;28;20214;-74
2021/10/08 00:25:04;;;;;;;44.20;25.17;;;;;;;;;;5052155;28;20276;-76
2021/10/08 00:27:29;;;;;;;98.80;27.40;;;;;;;;;;5049279;28;20598;-73
2021/10/08 00:29:54;;;;;;;134.33;28.70;;;;;;;;;;5050560;28;20611;-74
2021/10/08 00:32:20;;;;;;;73.67;27.40;;;;;;;;;;5050015;28;20192;-74
2021/10/08 00:34:45;;;;;;;90.53;27.70;;;;;;;;;;5049418;28;20239;-74
2021/10/08 00:37:10;;;;;;;71.10;26.53;;;;;;;;;;5049320;28;20177;-74
2021/10/08 00:39:35;;;;;;;63.50;27.93;;;;;;;;;;5047913;28;20170;-74
2021/10/08 00:42:03;;;;;;;73.07;26.47;;;;;;;;;;5047300;28;20181;-74
2021/10/08 00:44:29;;;;;;;98.97;28.67;;;;;;;;;;5052892;28;20258;-74
2021/10/08 00:46:55;;;;;;;67.70;26.07;;;;;;;;;;5050971;28;20182;-74
2021/10/08 00:49:20;;;;;;;63.13;26.00;;;;;;;;;;5051032;28;20555;-74
2021/10/08 00:51:45;;;;;;;137.00;28.67;;;;;;;;;;5055398;28;20220;-74
2021/10/08 00:54:10;;;;;;;66.77;26.97;;;;;;;;;;5050966;28;20202;-76
2021/10/08 00:56:36;;;;;;;81.00;26.60;;;;;;;;;;5051040;28;20474;-74
2021/10/08 00:59:01;;;;;;;73.50;25.77;;;;;;;;;;5050239;28;20173;-74
2021/10/08 01:01:26;;;;;;;76.27;26.00;;;;;;;;;;5050072;28;20226;-74
2021/10/08 01:03:52;;;;;;;53.30;25.43;;;;;;;;;;5055425;28;20177;-74
2021/10/08 01:06:17;;;;;;;55.90;23.77;;;;;;;;;;5047761;28;20437;-75
2021/10/08 01:08:42;;;;;;;165.23;29.97;;;;;;;;;;5050784;28;20655;-74
2021/10/08 01:11:07;;;;;;;123.07;27.40;;;;;;;;;;5048846;28;20667;-74
2021/10/08 01:13:32;;;;;;;122.17;25.20;;;;;;;;;;5059492;28;20201;-74
2021/10/08 01:15:58;;;;;;;138.47;26.90;;;;;;;;;;5054084;28;20284;-74
2021/10/08 01:18:24;;;;;;;62.20;23.60;;;;;;;;;;5051670;28;20173;-75
2021/10/08 01:20:49;;;;;;;86.57;27.37;;;;;;;;;;5047588;28;20182;-75
2021/10/08 01:23:14;;;;;;;58.20;23.63;;;;;;;;;;5052640;28;20182;-74
2021/10/08 01:25:39;;;;;;;174.20;28.37;;;;;;;;;;5052641;28;20208;-74
2021/10/08 01:28:05;;;;;;;115.93;24.63;;;;;;;;;;5051429;28;20177;-74
2021/10/08 01:30:31;;;;;;;102.00;25.00;;;;;;;;;;5052897;28;20173;-74
2021/10/08 01:32:56;;;;;;;91.37;24.33;;;;;;;;;;5052734;28;20196;-75
2021/10/08 01:35:21;;;;;;;58.93;23.67;;;;;;;;;;5053175;28;20288;-75
2021/10/08 01:37:46;;;;;;;62.53;21.13;;;;;;;;;;5054179;28;20651;-75
2021/10/08 01:40:12;;;;;;;41.47;21.17;;;;;;;;;;5052913;28;20184;-75
2021/10/08 01:42:38;;;;;;;110.80;24.27;;;;;;;;;;5049903;28;20178;-75
2021/10/08 01:45:04;;;;;;;148.80;25.60;;;;;;;;;;5083439;22;20236;-78
2021/10/08 01:47:29;;;;;;;111.47;25.10;;;;;;;;;;5072059;28;20227;-77
2021/10/08 01:49:55;;;;;;;111.27;24.40;;;;;;;;;;5066282;28;20173;-77
2021/10/08 01:52:20;;;;;;;70.73;21.47;;;;;;;;;;5066998;28;20174;-78
2021/10/08 01:54:45;;;;;;;101.40;23.40;;;;;;;;;;5066725;28;20209;-78
2021/10/08 01:57:11;;;;;;;99.43;23.73;;;;;;;;;;5068862;28;20169;-78
2021/10/08 01:59:36;;;;;;;26.70;18.17;;;;;;;;;;5065036;28;20170;-79
2021/10/08 02:02:01;;;;;;;61.83;20.80;;;;;;;;;;5068392;28;20275;-79
2021/10/08 02:04:26;;;;;;;36.30;19.20;;;;;;;;;;5069511;28;20206;-78
2021/10/08 02:06:52;;;;;;;79.60;22.07;;;;;;;;;;5070319;28;20174;-79
2021/10/08 02:09:17;;;;;;;125.60;24.57;;;;;;;;;;5069584;28;20666;-78
2021/10/08 02:11:42;;;;;;;36.30;18.83;;;;;;;;;;5066558;28;20276;-79
2021/10/08 02:14:07;;;;;;;60.97;21.03;;;;;;;;;;5063359;28;20273;-79
2021/10/08 02:16:33;;;;;;;31.53;17.57;;;;;;;;;;5065796;28;20204;-79
2021/10/08 02:18:58;;;;;;;52.50;19.03;;;;;;;;;;5069584;28;20179;-79
2021/10/08 02:21:24;;;;;;;73.33;19.93;;;;;;;;;;5060110;28;20173;-79
2021/10/08 02:23:49;;;;;;;75.60;20.53;;;;;;;;;;5070000;28;20173;-80
2021/10/08 02:26:15;;;;;;;40.93;18.67;;;;;;;;;;5064423;28;20687;-80
2021/10/08 02:28:41;;;;;;;61.37;19.83;;;;;;;;;;5067815;28;20176;-79
2021/10/08 02:31:06;;;;;;;32.07;17.23;;;;;;;;;;5067283;28;20173;-79
2021/10/08 02:33:33;;;;;;;118.20;22.83;;;;;;;;;;5066925;28;20185;-79
2021/10/08 02:36:00;;;;;;;40.00;17.57;;;;;;;;;;5069105;28;20201;-79
2021/10/08 02:38:26;;;;;;;72.67;19.53;;;;;;;;;;5065785;28;20170;-80
2021/10/08 02:40:51;;;;;;;75.23;18.07;;;;;;;;;;5070326;28;20176;-79
2021/10/08 02:43:16;;;;;;;73.80;19.07;;;;;;;;;;5069524;28;20182;-80
2021/10/08 02:45:41;;;;;;;113.80;21.20;;;;;;;;;;5071448;28;20205;-80
2021/10/08 02:48:06;;;;;;;62.43;19.13;;;;;;;;;;5067476;28;20173;-80
2021/10/08 02:50:32;;;;;;;53.50;18.47;;;;;;;;;;5061952;28;20169;-80
2021/10/08 02:52:57;;;;;;;32.17;17.07;;;;;;;;;;5063155;28;20181;-79
2021/10/08 02:55:23;;;;;;;56.83;15.87;;;;;;;;;;5063016;28;20211;-80
2021/10/08 02:57:48;;;;;;;96.70;17.00;;;;;;;;;;5067246;28;20262;-80
2021/10/08 03:00:13;;;;;;;151.17;20.13;;;;;;;;;;5065373;28;20169;-80
2021/10/08 03:02:38;;;;;;;32.17;14.63;;;;;;;;;;5074125;28;20230;-80
2021/10/08 03:05:04;;;;;;;34.87;14.53;;;;;;;;;;5088669;28;20193;-79
2021/10/08 03:07:29;;;;;;;71.37;18.20;;;;;;;;;;5062424;28;20177;-78
2021/10/08 03:09:54;;;;;;;47.63;16.20;;;;;;;;;;5070198;28;20181;-81
2021/10/08 03:12:20;;;;;;;74.30;17.70;;;;;;;;;;5065517;28;20181;-78
2021/10/08 03:14:46;;;;;;;91.10;17.53;;;;;;;;;;5062353;28;20204;-80
2021/10/08 03:17:11;;;;;;;73.33;17.37;;;;;;;;;;5064586;28;20177;-80
2021/10/08 03:19:36;;;;;;;25.87;13.53;;;;;;;;;;5062621;28;20176;-80
2021/10/08 03:22:02;;;;;;;51.60;15.83;;;;;;;;;;5062995;28;20176;-78
2021/10/08 03:24:27;;;;;;;63.60;16.40;;;;;;;;;;5065253;28;20259;-80
2021/10/08 03:26:52;;;;;;;149.87;19.17;;;;;;;;;;5087768;28;20263;-80
2021/10/08 03:29:17;;;;;;;121.83;18.70;;;;;;;;;;5069377;28;20165;-80
2021/10/08 03:31:43;;;;;;;206.93;20.53;;;;;;;;;;5080992;28;20210;-79
2021/10/08 03:34:08;;;;;;;33.13;14.20;;;;;;;;;;5075910;28;20546;-80
2021/10/08 03:36:57;;;;;;;42.33;15.00;;;;;;;;;;5072249;28;20180;-80
2021/10/08 03:39:24;;;;;;;34.67;14.30;;;;;;;;;;5069749;28;20192;-80
2021/10/08 03:41:51;;;;;;;35.40;13.67;;;;;;;;;;5080324;28;20215;-81
2021/10/08 03:44:17;;;;;;;48.23;16.37;;;;;;;;;;5073350;28;20723;-80
2021/10/08 03:46:52;;;;;;;47.57;15.83;;;;;;;;;;5067505;28;20177;-79
2021/10/08 03:49:19;;;;;;;35.50;14.67;;;;;;;;;;5067219;28;20241;-79
2021/10/08 03:51:45;;;;;;;88.03;15.57;;;;;;;;;;5066008;28;20233;-80
2021/10/08 03:54:11;;;;;;;37.90;13.50;;;;;;;;;;5062378;28;20197;-80
2021/10/08 03:56:36;;;;;;;52.63;15.13;;;;;;;;;;5067979;28;20219;-80
2021/10/08 03:59:02;;;;;;;129.47;16.80;;;;;;;;;;5069795;28;20234;-80
2021/10/08 04:01:28;;;;;;;253.47;23.30;;;;;;;;;;5060711;28;20197;-79
2021/10/08 04:03:53;;;;;;;60.60;13.60;;;;;;;;;;5066055;28;20573;-80
2021/10/08 04:06:18;;;;;;;117.27;17.60;;;;;;;;;;5068248;28;20209;-80
2021/10/08 04:08:43;;;;;;;72.33;16.10;;;;;;;;;;5061957;28;20178;-80
2021/10/08 04:11:09;;;;;;;36.43;13.93;;;;;;;;;;5058972;28;20177;-80
2021/10/08 04:13:34;;;;;;;60.50;15.63;;;;;;;;;;5063133;28;20174;-80
2021/10/08 04:15:59;;;;;;;97.93;16.90;;;;;;;;;;5075987;28;20192;-80
2021/10/08 04:18:24;;;;;;;68.33;15.97;;;;;;;;;;5082057;28;20177;-80
2021/10/08 04:20:50;;;;;;;77.27;16.30;;;;;;;;;;5063943;28;20194;-80
2021/10/08 04:23:15;;;;;;;43.27;14.93;;;;;;;;;;5069281;28;20188;-80
2021/10/08 04:25:40;;;;;;;30.93;13.40;;;;;;;;;;5065624;28;20254;-81
2021/10/08 04:28:09;;;;;;;34.60;13.53;;;;;;;;;;5069557;28;20168;-80
2021/10/08 04:30:34;;;;;;;43.03;13.87;;;;;;;;;;5067667;28;20189;-80
2021/10/08 04:32:59;;;;;;;65.70;14.77;;;;;;;;;;5072034;28;20662;-80
2021/10/08 04:35:24;;;;;;;54.03;14.33;;;;;;;;;;5059807;28;20197;-81
2021/10/08 04:37:50;;;;;;;96.13;15.60;;;;;;;;;;5075567;28;20165;-80
2021/10/08 04:40:15;;;;;;;34.57;13.00;;;;;;;;;;5072165;28;20232;-81
2021/10/08 04:42:40;;;;;;;40.73;12.80;;;;;;;;;;5072502;28;20235;-81
2021/10/08 04:45:05;;;;;;;38.63;13.30;;;;;;;;;;5075467;28;20216;-81
2021/10/08 04:47:30;;;;;;;122.80;17.00;;;;;;;;;;5064777;28;20190;-81
2021/10/08 04:49:56;;;;;;;73.23;15.47;;;;;;;;;;5080722;28;20187;-81
2021/10/08 04:52:21;;;;;;;118.97;18.30;;;;;;;;;;5072193;28;20210;-81
2021/10/08 04:54:46;;;;;;;188.47;19.97;;;;;;;;;;5071349;28;20211;-81
2021/10/08 04:57:12;;;;;;;32.20;12.67;;;;;;;;;;5075051;28;20219;-81
2021/10/08 04:59:37;;;;;;;69.77;13.63;;;;;;;;;;5077515;28;20211;-82
2021/10/08 05:02:02;;;;;;;21.30;11.47;;;;;;;;;;5069465;28;20173;-81
2021/10/08 05:04:27;;;;;;;50.27;13.43;;;;;;;;;;5076481;28;20200;-82
2021/10/08 05:06:53;;;;;;;79.20;14.57;;;;;;;;;;5079587;28;20226;-79
2021/10/08 05:09:18;;;;;;;41.57;14.97;;;;;;;;;;5077870;28;20189;-81
2021/10/08 05:11:43;;;;;;;83.37;16.63;;;;;;;;;;5071351;28;20679;-82
2021/10/08 05:14:10;;;;;;;42.27;13.53;;;;;;;;;;5071398;28;20205;-81
2021/10/08 05:16:36;;;;;;;78.80;15.23;;;;;;;;;;5070339;28;20178;-81
2021/10/08 05:19:01;;;;;;;89.20;16.13;;;;;;;;;;5077271;28;20187;-81
2021/10/08 05:21:26;;;;;;;87.43;15.60;;;;;;;;;;5076764;28;20237;-81
2021/10/08 05:23:51;;;;;;;76.37;15.43;;;;;;;;;;5074659;28;20635;-81
2021/10/08 05:26:16;;;;;;;140.90;17.57;;;;;;;;;;5072574;28;20240;-80
2021/10/08 05:28:41;;;;;;;54.50;13.90;;;;;;;;;;5072567;28;20181;-81
2021/10/08 05:31:07;;;;;;;59.53;14.87;;;;;;;;;;5071944;28;20206;-82
2021/10/08 05:33:32;;;;;;;33.90;13.03;;;;;;;;;;5075048;28;20173;-81
2021/10/08 05:35:57;;;;;;;39.37;14.27;;;;;;;;;;5068984;28;20684;-81
2021/10/08 05:38:23;;;;;;;28.23;12.13;;;;;;;;;;5077531;28;20682;-81
2021/10/08 05:40:48;;;;;;;41.63;13.67;;;;;;;;;;5075453;28;20173;-82
2021/10/08 05:43:14;;;;;;;77.13;15.27;;;;;;;;;;5071688;28;20636;-81
2021/10/08 05:45:39;;;;;;;36.27;13.57;;;;;;;;;;5073021;28;20227;-82
2021/10/08 05:48:04;;;;;;;61.30;13.60;;;;;;;;;;5076829;28;20172;-81
2021/10/08 05:50:30;;;;;;;58.63;13.83;;;;;;;;;;5074696;28;20657;-82
2021/10/08 05:52:55;;;;;;;38.00;13.77;;;;;;;;;;5065327;28;20208;-82
2021/10/08 05:55:22;;;;;;;47.17;15.03;;;;;;;;;;5065387;28;20212;-82
2021/10/08 05:57:47;;;;;;;49.50;14.80;;;;;;;;;;5071089;28;20184;-82
2021/10/08 06:00:13;;;;;;;93.13;16.17;;;;;;;;;;5073989;28;20299;-81
2021/10/08 06:02:38;;;;;;;59.33;14.53;;;;;;;;;;5075856;28;20180;-80
2021/10/08 06:05:03;;;;;;;46.20;14.57;;;;;;;;;;5067635;28;20238;-81
2021/10/08 06:07:28;;;;;;;52.13;14.90;;;;;;;;;;5075207;28;20175;-82
2021/10/08 06:09:53;;;;;;;45.00;14.23;;;;;;;;;;5078554;28;20181;-81
2021/10/08 06:12:19;;;;;;;24.53;14.63;;;;;;;;;;5069841;28;20668;-81
2021/10/08 06:14:44;;;;;;;39.97;14.70;;;;;;;;;;5075668;28;20208;-82
2021/10/08 06:17:09;;;;;;;22.30;14.30;;;;;;;;;;5077555;28;20176;-82
2021/10/08 06:19:34;;;;;;;24.23;13.60;;;;;;;;;;5072050;28;20212;-82
2021/10/08 06:21:59;;;;;;;26.97;14.10;;;;;;;;;;5078694;28;20176;-82
2021/10/08 06:24:25;;;;;;;43.23;15.10;;;;;;;;;;5072009;28;20189;-82
2021/10/08 06:26:50;;;;;;;23.93;14.53;;;;;;;;;;5065617;28;20670;-82
2021/10/08 06:29:16;;;;;;;30.37;14.83;;;;;;;;;;5074982;28;20181;-81
2021/10/08 06:31:41;;;;;;;21.87;13.83;;;;;;;;;;5076099;28;20241;-81
2021/10/08 06:34:06;;;;;;;35.00;14.30;;;;;;;;;;5077780;28;20677;-82
2021/10/08 06:36:31;;;;;;;26.33;13.37;;;;;;;;;;5075794;28;20177;-82
2021/10/08 06:38:56;;;;;;;37.23;14.27;;;;;;;;;;5075843;28;20169;-82
2021/10/08 06:41:22;;;;;;;26.87;15.00;;;;;;;;;;5078732;28;20248;-81
2021/10/08 06:43:47;;;;;;;24.10;13.60;;;;;;;;;;5073033;28;20255;-81
2021/10/08 06:46:12;;;;;;;28.13;14.70;;;;;;;;;;5076455;28;20218;-82
2021/10/08 06:48:37;;;;;;;21.57;12.97;;;;;;;;;;5073303;28;20171;-81
2021/10/08 06:51:03;;;;;;;34.67;14.27;;;;;;;;;;5074786;28;20688;-80
2021/10/08 06:53:28;;;;;;;16.67;12.40;;;;;;;;;;5079096;28;20195;-81
2021/10/08 06:55:53;;;;;;;28.67;13.37;;;;;;;;;;5085642;28;20192;-82
2021/10/08 06:58:19;;;;;;;24.40;12.50;;;;;;;;;;5074146;28;20678;-81
2021/10/08 07:00:44;;;;;;;22.97;13.20;;;;;;;;;;5075154;28;20189;-82
2021/10/08 07:03:09;;;;;;;22.17;12.77;;;;;;;;;;5092473;28;20177;-80
2021/10/08 07:05:34;;;;;;;23.13;13.90;;;;;;;;;;5068339;28;20246;-80
2021/10/08 07:07:59;;;;;;;41.27;15.83;;;;;;;;;;5072681;28;20177;-80
2021/10/08 07:10:25;;;;;;;27.70;15.23;;;;;;;;;;5071846;28;20238;-81
2021/10/08 07:12:50;;;;;;;25.77;15.50;;;;;;;;;;5067750;28;20199;-81
2021/10/08 07:15:16;;;;;;;27.00;16.00;;;;;;;;;;5067643;28;20288;-81
2021/10/08 07:17:47;;;;;;;27.47;15.53;;;;;;;;;;5065582;28;20657;-81
2021/10/08 07:20:13;;;;;;;19.63;12.77;;;;;;;;;;5091317;28;20202;-80
2021/10/08 07:22:38;;;;;;;21.00;14.33;;;;;;;;;;5093166;28;20271;-80
2021/10/08 07:25:05;;;;;;;25.53;16.10;;;;;;;;;;5069943;28;20201;-81
2021/10/08 07:27:31;;;;;;;19.13;13.80;;;;;;;;;;5057730;28;20183;-80
2021/10/08 07:29:56;;;;;;;23.47;14.77;;;;;;;;;;5068811;28;20178;-80
2021/10/08 07:32:22;;;;;;;25.07;15.73;;;;;;;;;;5065930;28;20748;-80
2021/10/08 07:34:47;;;;;;;23.00;15.10;;;;;;;;;;5067460;28;20200;-80
2021/10/08 07:37:13;;;;;;;21.20;14.10;;;;;;;;;;5066463;28;20637;-79
2021/10/08 07:39:39;;;;;;;24.57;15.57;;;;;;;;;;5069802;28;20204;-79
2021/10/08 07:42:04;;;;;;;20.13;15.40;;;;;;;;;;5056626;28;20627;-79
2021/10/08 07:44:30;;;;;;;25.33;15.47;;;;;;;;;;5082625;22;20308;-77
2021/10/08 07:46:56;;;;;;;25.53;16.57;;;;;;;;;;5071975;28;20221;-77
2021/10/08 07:49:21;;;;;;;21.20;15.00;;;;;;;;;;5049113;28;20206;-78
2021/10/08 07:51:46;;;;;;;21.40;14.90;;;;;;;;;;5048262;28;20205;-78
2021/10/08 07:54:11;;;;;;;18.57;13.83;;;;;;;;;;5047129;28;20229;-77
2021/10/08 07:56:36;;;;;;;26.23;17.73;;;;;;;;;;5046059;28;20209;-76
2021/10/08 07:59:03;;;;;;;27.37;18.50;;;;;;;;;;5044864;28;20188;-77
2021/10/08 08:01:28;;;;;;;27.47;18.80;;;;;;;;;;5048872;28;20185;-77
2021/10/08 08:03:54;;;;;;;25.80;17.97;;;;;;;;;;5048854;28;20673;-77
2021/10/08 08:06:19;;;;;;;30.03;19.77;;;;;;;;;;5045650;28;20197;-75
2021/10/08 08:08:44;;;;;;;34.70;23.13;;;;;;;;;;5051523;28;20193;-76
2021/10/08 08:11:09;;;;;;;34.63;23.40;;;;;;;;;;5043149;28;20652;-77
2021/10/08 08:13:34;;;;;;;34.20;23.93;;;;;;;;;;5050816;28;20181;-76
2021/10/08 08:15:59;;;;;;;38.50;22.10;;;;;;;;;;5047895;28;20265;-76
2021/10/08 08:18:25;;;;;;;33.10;19.57;;;;;;;;;;5049059;28;20177;-76
2021/10/08 08:20:50;;;;;;;31.13;22.17;;;;;;;;;;5050496;28;20173;-77
2021/10/08 08:23:16;;;;;;;31.70;21.27;;;;;;;;;;5052748;28;20181;-77
2021/10/08 08:25:41;;;;;;;34.53;21.88;;;;;;;;;;5047517;28;20193;-76
2021/10/08 08:28:06;;;;;;;35.10;22.75;;;;;;;;;;5049502;28;20177;-76
2021/10/08 08:30:36;;;;;;;31.42;20.98;;;;;;;;;;5048725;28;20174;-75
2021/10/08 08:33:02;;;;;;;33.85;20.63;;;;;;;;;;5045840;28;20647;-75
2021/10/08 08:35:27;;;;;;;34.85;21.65;;;;;;;;;;5043659;28;20203;-77
2021/10/08 08:37:52;;;;;;;38.57;25.73;;;;;;;;;;5046252;28;20193;-76
2021/10/08 08:40:17;;;;;;;29.17;22.35;;;;;;;;;;5043703;28;20423;-75
2021/10/08 08:42:43;;;;;;;31.40;22.85;;;;;;;;;;5044685;28;20201;-76
2021/10/08 08:45:08;;;;;;;30.17;21.95;;;;;;;;;;5051830;28;20720;-76
2021/10/08 08:47:34;;;;;;;35.05;22.25;;;;;;;;;;5048973;28;20588;-75
2021/10/08 08:49:59;;;;;;;30.17;21.33;;;;;;;;;;5042364;28;20265;-75
2021/10/08 08:52:24;;;;;;;28.48;20.48;;;;;;;;;;5048948;28;20261;-75
2021/10/08 08:54:52;;;;;;;29.65;20.73;;;;;;;;;;5046824;28;20216;-75
2021/10/08 08:57:18;;;;;;;30.42;22.58;;;;;;;;;;5049195;28;20236;-75
2021/10/08 09:00:03;;;;;;;31.70;22.30;;;;;;;;;;5044573;28;20174;-75
2021/10/08 09:02:28;;;;;;;35.03;23.52;;;;;;;;;;5041629;28;20170;-74
2021/10/08 09:04:54;;;;;;;34.58;24.00;;;;;;;;;;5044536;28;20288;-75
2021/10/08 09:07:19;;;;;;;35.53;25.40;;;;;;;;;;5053265;28;20185;-75
2021/10/08 09:09:45;;;;;;;38.95;26.92;;;;;;;;;;5043224;28;20662;-75
2021/10/08 09:12:10;;;;;;;34.03;25.67;;;;;;;;;;5050234;28;20567;-74
2021/10/08 09:14:35;;;;;;;35.83;25.50;;;;;;;;;;5037437;28;20682;-74
2021/10/08 09:17:06;;;;;;;48.15;32.88;;;;;;;;;;5038052;28;20301;-74
2021/10/08 09:19:44;;;;;;;39.95;29.58;;;;;;;;;;5043461;28;20182;-74
2021/10/08 09:22:09;;;;;;;39.85;27.50;;;;;;;;;;5038433;28;20201;-75
2021/10/08 09:24:34;;;;;;;38.70;28.00;;;;;;;;;;5048553;28;20190;-74
2021/10/08 09:27:19;;;;;;;44.83;31.10;;;;;;;;;;5041093;28;20273;-74
2021/10/08 09:29:52;;;;;;;40.97;26.88;;;;;;;;;;5047359;28;20182;-75
2021/10/08 09:32:18;;;;;;;39.15;27.50;;;;;;;;;;5040943;28;20264;-74
2021/10/08 09:34:43;;;;;;;39.40;27.52;;;;;;;;;;5049257;28;20295;-74
2021/10/08 09:37:11;;;;;;;40.53;27.45;;;;;;;;;;5055959;28;20185;-75
2021/10/08 09:39:37;;;;;;;41.67;28.90;;;;;;;;;;5050590;28;20170;-74
2021/10/08 09:42:02;;;;;;;39.10;26.23;;;;;;;;;;5057969;28;20170;-74
2021/10/08 09:44:29;;;;;;;38.22;26.15;;;;;;;;;;5048275;28;20174;-74
2021/10/08 09:47:08;;;;;;;35.72;25.67;;;;;;;;;;5045245;28;21007;-74
2021/10/08 09:49:33;;;;;;;40.90;28.38;;;;;;;;;;5054559;28;20212;-74
2021/10/08 09:51:58;;;;;;;38.95;26.30;;;;;;;;;;5049293;28;20638;-74
2021/10/08 09:54:27;;;;;;;38.33;27.00;;;;;;;;;;5054254;28;20209;-74
2021/10/08 09:56:58;;;;;;;41.20;28.45;;;;;;;;;;5048147;28;20422;-74
2021/10/08 09:59:36;;;;;;;40.08;27.20;;;;;;;;;;5043727;28;20531;-75
2021/10/08 10:02:05;;;;;;;40.15;28.08;;;;;;;;;;5043255;28;20653;-75
2021/10/08 10:04:47;;;;;;;42.15;27.38;;;;;;;;;;5049863;28;20185;-74
2021/10/08 10:07:13;;;;;;;37.55;26.05;;;;;;;;;;5049677;28;20280;-73
2021/10/08 10:09:38;;;;;;;38.80;27.05;;;;;;;;;;5051218;28;20182;-73
2021/10/08 10:12:04;;;;;;;39.20;26.60;;;;;;;;;;5048107;28;20173;-73
2021/10/08 10:14:29;;;;;;;39.55;28.25;;;;;;;;;;5047501;28;20205;-73
2021/10/08 10:16:54;;;;;;;37.57;26.97;;;;;;;;;;5043427;28;20177;-75
2021/10/08 10:19:20;;;;;;;37.65;27.10;;;;;;;;;;5047347;28;21004;-74
2021/10/08 10:21:46;;;;;;;37.13;25.20;;;;;;;;;;5042432;28;20307;-73
2021/10/08 10:24:11;;;;;;;36.93;25.33;;;;;;;;;;5040921;28;20187;-73
2021/10/08 10:26:36;;;;;;;35.40;23.77;;;;;;;;;;5048701;28;21300;-75
2021/10/08 10:29:02;;;;;;;33.33;25.48;;;;;;;;;;5044690;28;20185;-72
2021/10/08 10:31:28;;;;;;;38.05;24.85;;;;;;;;;;5049787;28;20185;-73
2021/10/08 10:33:58;;;;;;;31.13;24.15;;;;;;;;;;5049712;28;20206;-73
2021/10/08 10:36:27;;;;;;;33.97;25.05;;;;;;;;;;5048209;28;20239;-73
2021/10/08 10:39:14;;;;;;;37.05;24.65;;;;;;;;;;5045370;28;20231;-73
2021/10/08 10:41:40;;;;;;;33.30;24.13;;;;;;;;;;5044452;28;20174;-73
2021/10/08 10:44:12;;;;;;;31.23;22.65;;;;;;;;;;5050422;28;20178;-73
2021/10/08 10:46:49;;;;;;;28.98;22.25;;;;;;;;;;5061411;28;20221;-73
2021/10/08 10:51:59;;;;;;;26.33;20.80;;;;;;;;;;5054859;28;20192;-73
2021/10/08 10:54:41;;;;;;;29.85;22.13;;;;;;;;;;5051361;28;20216;-73
2021/10/08 10:57:06;;;;;;;28.23;20.98;;;;;;;;;;5062567;28;20766;-73
2021/10/08 10:59:35;;;;;;;27.90;20.52;;;;;;;;;;5054670;28;20209;-73
2021/10/08 11:02:14;;;;;;;25.95;20.20;;;;;;;;;;5060011;28;20180;-73
2021/10/08 11:04:44;;;;;;;25.35;21.38;;;;;;;;;;5060265;28;20284;-73
2021/10/08 11:07:11;;;;;;;27.98;21.98;;;;;;;;;;5055535;28;20560;-74
2021/10/08 11:09:37;;;;;;;23.58;19.35;;;;;;;;;;5047229;28;20686;-73
2021/10/08 11:12:21;;;;;;;21.95;18.30;;;;;;;;;;5046052;28;20698;-73
2021/10/08 11:14:46;;;;;;;24.92;20.27;;;;;;;;;;5045923;28;20217;-73
2021/10/08 11:17:30;;;;;;;27.57;20.47;;;;;;;;;;5049806;28;20308;-73
2021/10/08 11:19:55;;;;;;;25.45;20.77;;;;;;;;;;5048141;28;20422;-72
2021/10/08 11:22:39;;;;;;;24.37;18.93;;;;;;;;;;5054464;28;20256;-73
2021/10/08 11:25:05;;;;;;;21.85;18.73;;;;;;;;;;5045696;28;20434;-73
2021/10/08 11:27:30;;;;;;;22.55;19.10;;;;;;;;;;5045887;28;20231;-73
2021/10/08 11:30:02;;;;;;;23.50;19.20;;;;;;;;;;5056105;28;20639;-72
2021/10/08 11:32:27;;;;;;;22.35;17.70;;;;;;;;;;5055921;28;20435;-73
2021/10/08 11:34:53;;;;;;;20.20;16.75;;;;;;;;;;5050458;28;20247;-73
2021/10/08 11:37:19;;;;;;;19.05;16.10;;;;;;;;;;5051069;28;20169;-74
2021/10/08 11:39:45;;;;;;;20.13;16.98;;;;;;;;;;5041478;28;20284;-73
2021/10/08 11:42:15;;;;;;;19.70;16.30;;;;;;;;;;5050195;28;20344;-74
2021/10/08 11:52:34;;;;;;;19.83;15.57;;;;;;;;;;5040347;28;21012;-73
2021/10/08 11:55:04;;;;;;;20.00;16.55;;;;;;;;;;5044729;28;20213;-73
2021/10/08 11:57:29;;;;;;;18.77;15.18;;;;;;;;;;5056702;28;20248;-73
2021/10/08 11:59:57;;;;;;;16.90;14.40;;;;;;;;;;5049872;28;20253;-73
2021/10/08 12:02:22;;;;;;;15.60;13.90;;;;;;;;;;5044526;28;20837;-73
2021/10/08 12:05:00;;;;;;;18.23;14.90;;;;;;;;;;5052443;28;20186;-73
2021/10/08 12:07:29;;;;;;;17.58;14.10;;;;;;;;;;5056354;28;20455;-72
2021/10/08 12:10:11;;;;;;;17.85;14.90;;;;;;;;;;5052240;28;20162;-72
2021/10/08 12:12:36;;;;;;;16.73;12.80;;;;;;;;;;5047855;28;20181;-73
2021/10/08 12:15:02;;;;;;;17.38;13.70;;;;;;;;;;5046218;28;20200;-73
2021/10/08 12:17:27;;;;;;;14.15;12.48;;;;;;;;;;5051318;28;20238;-73
2021/10/08 12:19:52;;;;;;;13.35;11.15;;;;;;;;;;5047854;28;20170;-72
2021/10/08 12:22:22;;;;;;;14.47;11.83;;;;;;;;;;5050489;28;20177;-72
2021/10/08 12:24:47;;;;;;;13.25;11.85;;;;;;;;;;5049810;28;20853;-73
2021/10/08 12:27:12;;;;;;;15.23;12.07;;;;;;;;;;5049803;28;20178;-73
2021/10/08 12:29:39;;;;;;;16.25;11.52;;;;;;;;;;5051369;28;20181;-73
2021/10/08 12:32:08;;;;;;;14.95;12.00;;;;;;;;;;5049227;28;20196;-72
2021/10/08 12:34:41;;;;;;;12.77;10.88;;;;;;;;;;5055278;28;20173;-73
2021/10/08 12:37:08;;;;;;;11.82;10.63;;;;;;;;;;5056115;28;20184;-73
2021/10/08 12:39:35;;;;;;;13.95;11.52;;;;;;;;;;5061603;28;20182;-73
2021/10/08 12:42:09;;;;;;;14.95;11.38;;;;;;;;;;5057616;28;20665;-73
2021/10/08 12:44:36;;;;;;;11.55;10.35;;;;;;;;;;5038534;28;20201;-73
2021/10/08 12:47:11;;;;;;;12.57;10.18;;;;;;;;;;5051129;28;20178;-73
2021/10/08 12:49:50;;;;;;;12.07;10.88;;;;;;;;;;5041397;28;20258;-73
2021/10/08 12:52:16;;;;;;;10.73;9.43;;;;;;;;;;5049617;28;20189;-73
2021/10/08 12:54:45;;;;;;;11.10;9.23;;;;;;;;;;5046051;28;20316;-73
2021/10/08 12:57:14;;;;;;;13.40;11.75;;;;;;;;;;5047355;28;20184;-74
2021/10/08 12:59:46;;;;;;;12.43;11.18;;;;;;;;;;5043480;28;20173;-73
2021/10/08 13:02:11;;;;;;;10.82;9.65;;;;;;;;;;5044761;28;20178;-73
2021/10/08 13:04:40;;;;;;;11.43;9.50;;;;;;;;;;5046416;28;20619;-73
2021/10/08 13:07:18;;;;;;;16.45;10.73;;;;;;;;;;5047714;28;20453;-73
2021/10/08 13:10:02;;;;;;;13.40;10.90;;;;;;;;;;5045751;28;20173;-73
2021/10/08 13:12:46;;;;;;;12.27;9.18;;;;;;;;;;5051779;28;20169;-72
2021/10/08 13:15:16;;;;;;;11.30;10.10;;;;;;;;;;5049791;28;20682;-72
2021/10/08 13:17:41;;;;;;;11.73;10.23;;;;;;;;;;5048403;28;20264;-72
2021/10/08 13:20:10;;;;;;;12.27;10.45;;;;;;;;;;5037658;28;20276;-72
2021/10/08 13:22:39;;;;;;;14.55;10.30;;;;;;;;;;5051982;28;20209;-72
2021/10/08 13:25:04;;;;;;;10.68;9.57;;;;;;;;;;5052076;28;20524;-72
2021/10/08 13:27:33;;;;;;;12.80;9.32;;;;;;;;;;5053785;28;20204;-72
2021/10/08 13:29:59;;;;;;;11.13;9.70;;;;;;;;;;5057626;28;20186;-72
2021/10/08 13:32:24;;;;;;;11.25;10.05;;;;;;;;;;5049701;28;20166;-73
2021/10/08 13:34:49;;;;;;;10.68;9.63;;;;;;;;;;5044230;28;20201;-73
2021/10/08 13:37:15;;;;;;;13.95;10.02;;;;;;;;;;5047179;28;20189;-73
2021/10/08 13:39:40;;;;;;;11.65;9.55;;;;;;;;;;5053238;28;20592;-72
2021/10/08 13:42:05;;;;;;;11.63;9.52;;;;;;;;;;5046233;28;20189;-73
2021/10/08 13:44:32;;;;;;;12.57;10.68;;;;;;;;;;5038686;28;20226;-72
2021/10/08 13:46:57;;;;;;;12.93;10.35;;;;;;;;;;5063280;22;20252;-77
2021/10/08 13:49:22;;;;;;;12.43;9.50;;;;;;;;;;5049990;28;20609;-77
2021/10/08 13:51:47;;;;;;;9.93;8.80;;;;;;;;;;5048700;28;20426;-76
2021/10/08 13:54:12;;;;;;;9.43;8.47;;;;;;;;;;5045920;28;20686;-77
2021/10/08 13:56:42;;;;;;;9.60;8.20;;;;;;;;;;5035917;28;20480;-76
2021/10/08 13:59:07;;;;;;;8.85;7.70;;;;;;;;;;5049399;28;20265;-76
2021/10/08 14:01:41;;;;;;;8.83;7.40;;;;;;;;;;5025875;28;20265;-76
2021/10/08 14:04:18;;;;;;;9.98;7.47;;;;;;;;;;5052363;28;20777;-77
2021/10/08 14:12:18;;;;;;;8.20;7.13;;;;;;;;;;5055159;28;20239;-77
2021/10/08 14:14:44;;;;;;;9.33;8.03;;;;;;;;;;5053076;28;20256;-77
2021/10/08 14:17:09;;;;;;;7.82;6.93;;;;;;;;;;5050694;28;20829;-77
2021/10/08 14:19:34;;;;;;;7.43;6.65;;;;;;;;;;5047768;28;20190;-76
2021/10/08 14:21:59;;;;;;;7.65;6.90;;;;;;;;;;5044930;28;20189;-77
2021/10/08 14:24:25;;;;;;;8.20;7.40;;;;;;;;;;5047104;28;20216;-78
2021/10/08 14:26:50;;;;;;;7.82;6.57;;;;;;;;;;5042286;28;20458;-77
2021/10/08 14:29:15;;;;;;;10.40;7.80;;;;;;;;;;5045729;28;20209;-77
2021/10/08 14:31:41;;;;;;;7.15;6.38;;;;;;;;;;5050521;28;20181;-78